Time,TemperatureF,DewpointF,PressureIn,WindDirection,WindDirectionDegrees,WindSpeedMPH,WindSpeedGustMPH,Humidity,HourlyPrecipIn,Conditions,Clouds,dailyrainin,SolarRadiationWatts/m^2,SoftwareType,DateUTC
2013-04-09 00:03:00,46.0,44.0,-100.00,ENE,57,5.0,7.0,91,0.00,,,0.00,0.000000,,2013-04-09 10:03:00,
2013-04-09 00:12:00,46.0,44.0,-100.00,ENE,57,5.0,7.0,91,0.00,,,0.00,0.000000,,2013-04-09 10:12:00,
2013-04-09 00:23:00,46.0,44.0,-100.00,ENE,57,5.0,7.0,91,0.00,,,0.00,0.000000,,2013-04-09 10:23:00,
2013-04-09 00:32:00,46.0,44.0,-100.00,ENE,57,5.0,7.0,91,0.00,,,0.00,0.000000,,2013-04-09 10:32:00,
2013-04-09 00:53:00,48.0,43.0,-100.00,East,81,0.0,7.0,84,0.00,,,0.00,0.000000,,2013-04-09 10:53:00,
2013-04-09 01:02:00,48.0,43.0,-100.00,East,81,0.0,7.0,84,0.00,,,0.00,0.000000,,2013-04-09 11:02:00,
2013-04-09 01:12:00,48.0,43.0,-100.00,East,81,0.0,7.0,84,0.00,,,0.00,0.000000,,2013-04-09 11:12:00,
2013-04-09 01:22:00,48.0,43.0,-100.00,East,81,0.0,7.0,84,0.00,,,0.00,0.000000,,2013-04-09 11:22:00,
2013-04-09 01:32:00,48.0,43.0,-100.00,East,81,0.0,7.0,84,0.00,,,0.00,0.000000,,2013-04-09 11:32:00,
2013-04-09 01:52:00,49.0,42.0,-100.00,NE,52,7.0,10.0,78,0.00,,,0.00,0.000000,,2013-04-09 11:52:00,
2013-04-09 02:02:00,49.0,42.0,-100.00,NE,52,7.0,10.0,78,0.00,,,0.00,0.000000,,2013-04-09 12:02:00,
2013-04-09 02:12:00,49.0,42.0,-100.00,NE,52,7.0,10.0,78,0.00,,,0.00,0.000000,,2013-04-09 12:12:00,
2013-04-09 02:22:00,49.0,42.0,-100.00,NE,52,7.0,10.0,78,0.00,,,0.00,0.000000,,2013-04-09 12:22:00,
2013-04-09 02:32:00,49.0,42.0,-100.00,NE,52,7.0,10.0,78,0.00,,,0.00,0.000000,,2013-04-09 12:32:00,
2013-04-09 02:53:00,50.0,42.0,-100.00,ENE,78,5.0,9.0,73,0.00,,,0.00,0.000000,,2013-04-09 12:53:00,
2013-04-09 03:02:00,50.0,42.0,-100.00,ENE,78,5.0,9.0,73,0.00,,,0.00,0.000000,,2013-04-09 13:02:00,
2013-04-09 03:12:00,50.0,42.0,-100.00,ENE,78,5.0,9.0,73,0.00,,,0.00,0.000000,,2013-04-09 13:12:00,
2013-04-09 03:22:00,50.0,42.0,-100.00,ENE,78,5.0,9.0,73,0.00,,,0.00,0.000000,,2013-04-09 13:22:00,
2013-04-09 03:32:00,50.0,42.0,-100.00,ENE,78,5.0,9.0,73,0.00,,,0.00,0.000000,,2013-04-09 13:32:00,
2013-04-09 03:53:00,47.0,41.0,-100.00,East,93,0.0,11.0,79,0.00,,,0.00,0.000000,,2013-04-09 13:53:00,
2013-04-09 04:02:00,47.0,41.0,-100.00,East,93,0.0,11.0,79,0.00,,,0.00,0.000000,,2013-04-09 14:02:00,
2013-04-09 04:12:00,47.0,41.0,-100.00,East,93,0.0,11.0,79,0.00,,,0.00,0.000000,,2013-04-09 14:12:00,
2013-04-09 04:22:00,47.0,41.0,-100.00,East,93,0.0,11.0,79,0.00,,,0.00,0.000000,,2013-04-09 14:22:00,
2013-04-09 04:32:00,47.0,41.0,-100.00,East,93,0.0,11.0,79,0.00,,,0.00,0.000000,,2013-04-09 14:32:00,
2013-04-09 04:52:00,48.0,39.0,-100.00,ENE,71,5.0,11.0,72,0.00,,,0.00,0.000000,,2013-04-09 14:52:00,
2013-04-09 05:02:00,48.0,39.0,-100.00,ENE,71,5.0,11.0,72,0.00,,,0.00,0.000000,,2013-04-09 15:02:00,
2013-04-09 05:12:00,48.0,39.0,-100.00,ENE,71,5.0,11.0,72,0.00,,,0.00,0.000000,,2013-04-09 15:12:00,
2013-04-09 05:22:00,48.0,39.0,-100.00,ENE,71,5.0,11.0,72,0.00,,,0.00,0.000000,,2013-04-09 15:22:00,
2013-04-09 05:32:00,48.0,39.0,-100.00,ENE,71,5.0,11.0,72,0.00,,,0.00,0.000000,,2013-04-09 15:32:00,
2013-04-09 05:53:00,50.0,42.0,-100.00,ENE,67,7.0,9.0,74,0.00,,,0.00,0.000000,,2013-04-09 15:53:00,
2013-04-09 06:03:00,50.0,42.0,-100.00,ENE,67,7.0,9.0,74,0.00,,,0.00,0.000000,,2013-04-09 16:03:00,
2013-04-09 06:13:00,50.0,42.0,-100.00,ENE,67,7.0,9.0,74,0.00,,,0.00,0.000000,,2013-04-09 16:13:00,
2013-04-09 06:23:00,50.0,42.0,-100.00,ENE,67,7.0,9.0,74,0.00,,,0.00,0.000000,,2013-04-09 16:23:00,
2013-04-09 06:32:00,50.0,42.0,-100.00,ENE,67,7.0,9.0,74,0.00,,,0.00,0.000000,,2013-04-09 16:32:00,
2013-04-09 06:53:00,47.0,39.0,-100.00,ENE,78,7.0,13.0,74,0.00,,,0.00,0.000000,,2013-04-09 16:53:00,
2013-04-09 07:02:00,47.0,39.0,-100.00,ENE,78,7.0,13.0,74,0.00,,,0.00,0.000000,,2013-04-09 17:02:00,
2013-04-09 07:12:00,47.0,39.0,-100.00,ENE,78,7.0,13.0,74,0.00,,,0.00,0.000000,,2013-04-09 17:12:00,
2013-04-09 07:22:00,47.0,39.0,-100.00,ENE,78,7.0,13.0,74,0.00,,,0.00,0.000000,,2013-04-09 17:22:00,
2013-04-09 07:32:00,47.0,39.0,-100.00,ENE,78,7.0,13.0,74,0.00,,,0.00,0.000000,,2013-04-09 17:32:00,
2013-04-09 07:54:00,58.0,41.0,-100.00,NE,49,1.0,11.0,54,0.00,,,0.00,35.000000,,2013-04-09 17:54:00,
2013-04-09 08:02:00,58.0,41.0,-100.00,NE,49,1.0,11.0,54,0.00,,,0.00,35.000000,,2013-04-09 18:02:00,
2013-04-09 08:12:00,58.0,41.0,-100.00,NE,49,1.0,11.0,54,0.00,,,0.00,35.000000,,2013-04-09 18:12:00,
2013-04-09 08:22:00,58.0,41.0,-100.00,NE,49,1.0,11.0,54,0.00,,,0.00,35.000000,,2013-04-09 18:22:00,
2013-04-09 08:32:00,58.0,41.0,-100.00,NE,49,1.0,11.0,54,0.00,,,0.00,35.000000,,2013-04-09 18:32:00,
2013-04-09 09:02:00,61.0,44.0,-100.00,West,264,4.0,9.0,54,0.00,,,0.00,433.000000,,2013-04-09 19:02:00,
2013-04-09 09:11:00,61.0,44.0,-100.00,West,264,4.0,9.0,54,0.00,,,0.00,433.000000,,2013-04-09 19:11:00,
2013-04-09 09:22:00,61.0,44.0,-100.00,West,264,4.0,9.0,54,0.00,,,0.00,433.000000,,2013-04-09 19:22:00,
2013-04-09 09:32:00,61.0,44.0,-100.00,West,264,4.0,9.0,54,0.00,,,0.00,433.000000,,2013-04-09 19:32:00,
2013-04-09 10:02:00,63.0,49.0,-100.00,West,260,4.0,8.0,60,0.00,,,0.00,717.000000,,2013-04-09 20:02:00,
2013-04-09 10:12:00,63.0,49.0,-100.00,West,260,4.0,8.0,60,0.00,,,0.00,717.000000,,2013-04-09 20:12:00,
2013-04-09 10:22:00,63.0,49.0,-100.00,West,260,4.0,8.0,60,0.00,,,0.00,717.000000,,2013-04-09 20:22:00,
2013-04-09 10:32:00,63.0,49.0,-100.00,West,260,4.0,8.0,60,0.00,,,0.00,717.000000,,2013-04-09 20:32:00,
2013-04-09 10:52:00,62.0,50.0,-100.00,West,273,4.0,9.0,64,0.00,,,0.00,886.000000,,2013-04-09 20:52:00,
2013-04-09 11:02:00,62.0,50.0,-100.00,West,273,4.0,9.0,64,0.00,,,0.00,886.000000,,2013-04-09 21:02:00,
2013-04-09 11:12:00,62.0,50.0,-100.00,West,273,4.0,9.0,64,0.00,,,0.00,886.000000,,2013-04-09 21:12:00,
2013-04-09 11:22:00,62.0,50.0,-100.00,West,273,4.0,9.0,64,0.00,,,0.00,886.000000,,2013-04-09 21:22:00,
2013-04-09 11:32:00,62.0,50.0,-100.00,West,273,4.0,9.0,64,0.00,,,0.00,886.000000,,2013-04-09 21:32:00,
2013-04-09 11:53:00,70.0,50.0,-100.00,NNE,29,7.0,11.0,49,0.00,,,0.00,1019.000000,,2013-04-09 21:53:00,
2013-04-09 12:03:00,70.0,50.0,-100.00,NNE,29,7.0,11.0,49,0.00,,,0.00,1019.000000,,2013-04-09 22:03:00,
2013-04-09 12:12:00,70.0,50.0,-100.00,NNE,29,7.0,11.0,49,0.00,,,0.00,1019.000000,,2013-04-09 22:12:00,
2013-04-09 12:23:00,70.0,50.0,-100.00,NNE,29,7.0,11.0,49,0.00,,,0.00,1019.000000,,2013-04-09 22:23:00,
2013-04-09 12:32:00,70.0,50.0,-100.00,NNE,29,7.0,11.0,49,0.00,,,0.00,1019.000000,,2013-04-09 22:32:00,
2013-04-09 12:53:00,67.0,53.0,-100.00,West,272,7.0,19.0,60,0.00,,,0.00,1298.000000,,2013-04-09 22:53:00,
2013-04-09 13:02:00,67.0,53.0,-100.00,West,272,7.0,19.0,60,0.00,,,0.00,1298.000000,,2013-04-09 23:02:00,
2013-04-09 13:12:00,67.0,53.0,-100.00,West,272,7.0,19.0,60,0.00,,,0.00,1298.000000,,2013-04-09 23:12:00,
2013-04-09 13:22:00,67.0,53.0,-100.00,West,272,7.0,19.0,60,0.00,,,0.00,1298.000000,,2013-04-09 23:22:00,
2013-04-09 13:32:00,67.0,53.0,-100.00,West,272,7.0,19.0,60,0.00,,,0.00,1298.000000,,2013-04-09 23:32:00,
2013-04-09 13:53:00,64.0,54.0,-100.00,WSW,248,6.0,15.0,70,0.00,,,0.00,1064.000000,,2013-04-09 23:53:00,
2013-04-09 14:03:00,64.0,54.0,-100.00,WSW,248,6.0,15.0,70,0.00,,,0.00,1064.000000,,2013-04-10 00:03:00,
2013-04-09 14:12:00,64.0,54.0,-100.00,WSW,248,6.0,15.0,70,0.00,,,0.00,1064.000000,,2013-04-10 00:12:00,
2013-04-09 14:22:00,64.0,54.0,-100.00,WSW,248,6.0,15.0,70,0.00,,,0.00,1064.000000,,2013-04-10 00:22:00,
2013-04-09 14:32:00,64.0,54.0,-100.00,WSW,248,6.0,15.0,70,0.00,,,0.00,1064.000000,,2013-04-10 00:32:00,
2013-04-09 14:52:00,61.0,53.0,-100.00,WSW,255,6.0,13.0,75,0.00,,,0.00,561.000000,,2013-04-10 00:52:00,
2013-04-09 15:02:00,61.0,53.0,-100.00,WSW,255,6.0,13.0,75,0.00,,,0.00,561.000000,,2013-04-10 01:02:00,
2013-04-09 15:12:00,61.0,53.0,-100.00,WSW,255,6.0,13.0,75,0.00,,,0.00,561.000000,,2013-04-10 01:12:00,
2013-04-09 15:22:00,61.0,53.0,-100.00,WSW,255,6.0,13.0,75,0.00,,,0.00,561.000000,,2013-04-10 01:22:00,
2013-04-09 15:31:00,61.0,53.0,-100.00,WSW,255,6.0,13.0,75,0.00,,,0.00,561.000000,,2013-04-10 01:31:00,
2013-04-09 15:53:00,61.0,53.0,-100.00,WSW,241,7.0,15.0,75,0.00,,,0.00,465.000000,,2013-04-10 01:53:00,
2013-04-09 16:02:00,61.0,53.0,-100.00,WSW,241,7.0,15.0,75,0.00,,,0.00,465.000000,,2013-04-10 02:02:00,
2013-04-09 16:12:00,61.0,53.0,-100.00,WSW,241,7.0,15.0,75,0.00,,,0.00,465.000000,,2013-04-10 02:12:00,
2013-04-09 16:22:00,61.0,53.0,-100.00,WSW,241,7.0,15.0,75,0.00,,,0.00,465.000000,,2013-04-10 02:22:00,
2013-04-09 16:32:00,61.0,53.0,-100.00,WSW,241,7.0,15.0,75,0.00,,,0.00,465.000000,,2013-04-10 02:32:00,
2013-04-09 16:52:00,60.0,51.0,-100.00,SW,217,7.0,15.0,73,0.00,,,0.00,306.000000,,2013-04-10 02:52:00,
2013-04-09 17:02:00,60.0,51.0,-100.00,SW,217,7.0,15.0,73,0.00,,,0.00,306.000000,,2013-04-10 03:02:00,
2013-04-09 17:12:00,60.0,51.0,-100.00,SW,217,7.0,15.0,73,0.00,,,0.00,306.000000,,2013-04-10 03:12:00,
2013-04-09 17:22:00,60.0,51.0,-100.00,SW,217,7.0,15.0,73,0.00,,,0.00,306.000000,,2013-04-10 03:22:00,
2013-04-09 17:32:00,60.0,51.0,-100.00,SW,217,7.0,15.0,73,0.00,,,0.00,306.000000,,2013-04-10 03:32:00,
2013-04-09 17:33:00,60.0,52.0,-100.00,SW,218,6.0,12.0,75,0.00,,,0.00,326.000000,,2013-04-10 03:33:00,
2013-04-09 17:53:00,60.0,52.0,-100.00,SW,218,6.0,12.0,75,0.00,,,0.00,326.000000,,2013-04-10 03:53:00,
2013-04-09 18:03:00,60.0,52.0,-100.00,SW,218,6.0,12.0,75,0.00,,,0.00,326.000000,,2013-04-10 04:03:00,
2013-04-09 18:13:00,60.0,52.0,-100.00,SW,218,6.0,12.0,75,0.00,,,0.00,326.000000,,2013-04-10 04:13:00,
2013-04-09 18:22:00,60.0,52.0,-100.00,SW,218,6.0,12.0,75,0.00,,,0.00,326.000000,,2013-04-10 04:22:00,
2013-04-09 18:53:00,54.0,52.0,-100.00,WSW,246,3.0,12.0,93,0.00,,,0.00,178.000000,,2013-04-10 04:53:00,
2013-04-09 19:02:00,54.0,52.0,-100.00,WSW,246,3.0,12.0,93,0.00,,,0.00,178.000000,,2013-04-10 05:02:00,
2013-04-09 19:12:00,54.0,52.0,-100.00,WSW,246,3.0,12.0,93,0.00,,,0.00,178.000000,,2013-04-10 05:12:00,
2013-04-09 19:22:00,54.0,52.0,-100.00,WSW,246,3.0,12.0,93,0.00,,,0.00,178.000000,,2013-04-10 05:22:00,
2013-04-09 19:32:00,54.0,52.0,-100.00,WSW,246,3.0,12.0,93,0.00,,,0.00,178.000000,,2013-04-10 05:32:00,
2013-04-09 19:53:00,53.0,52.0,-100.00,WSW,242,2.0,9.0,98,0.00,,,0.00,18.000000,,2013-04-10 05:53:00,
2013-04-09 20:02:00,53.0,52.0,-100.00,WSW,242,2.0,9.0,98,0.00,,,0.00,18.000000,,2013-04-10 06:02:00,
2013-04-09 20:12:00,53.0,52.0,-100.00,WSW,242,2.0,9.0,98,0.00,,,0.00,18.000000,,2013-04-10 06:12:00,
2013-04-09 20:22:00,53.0,52.0,-100.00,WSW,242,2.0,9.0,98,0.00,,,0.00,18.000000,,2013-04-10 06:22:00,
2013-04-09 20:32:00,53.0,52.0,-100.00,WSW,242,2.0,9.0,98,0.00,,,0.00,18.000000,,2013-04-10 06:32:00,
2013-04-09 20:52:00,54.0,49.0,-100.00,NE,48,5.0,6.0,82,0.00,,,0.00,0.000000,,2013-04-10 06:52:00,
2013-04-09 21:02:00,54.0,49.0,-100.00,NE,48,5.0,6.0,82,0.00,,,0.00,0.000000,,2013-04-10 07:02:00,
2013-04-09 21:12:00,54.0,49.0,-100.00,NE,48,5.0,6.0,82,0.00,,,0.00,0.000000,,2013-04-10 07:12:00,
2013-04-09 21:22:00,54.0,49.0,-100.00,NE,48,5.0,6.0,82,0.00,,,0.00,0.000000,,2013-04-10 07:22:00,
2013-04-09 21:32:00,54.0,49.0,-100.00,NE,48,5.0,6.0,82,0.00,,,0.00,0.000000,,2013-04-10 07:32:00,
2013-04-09 21:52:00,52.0,51.0,-100.00,ENE,70,4.0,13.0,97,0.00,,,0.00,0.000000,,2013-04-10 07:52:00,
2013-04-09 22:02:00,52.0,51.0,-100.00,ENE,70,4.0,13.0,97,0.00,,,0.00,0.000000,,2013-04-10 08:02:00,
2013-04-09 22:12:00,52.0,51.0,-100.00,ENE,70,4.0,13.0,97,0.00,,,0.00,0.000000,,2013-04-10 08:12:00,
2013-04-09 22:22:00,52.0,51.0,-100.00,ENE,70,4.0,13.0,97,0.00,,,0.00,0.000000,,2013-04-10 08:22:00,
2013-04-09 22:32:00,52.0,51.0,-100.00,ENE,70,4.0,13.0,97,0.00,,,0.00,0.000000,,2013-04-10 08:32:00,
2013-04-09 22:52:00,54.0,28.0,-100.00,ENE,78,8.0,8.0,37,0.00,,,0.00,0.000000,,2013-04-10 08:52:00,
2013-04-09 23:02:00,54.0,28.0,-100.00,ENE,78,8.0,8.0,37,0.00,,,0.00,0.000000,,2013-04-10 09:02:00,
2013-04-09 23:12:00,54.0,28.0,-100.00,ENE,78,8.0,8.0,37,0.00,,,0.00,0.000000,,2013-04-10 09:12:00,
2013-04-09 23:22:00,54.0,28.0,-100.00,ENE,78,8.0,8.0,37,0.00,,,0.00,0.000000,,2013-04-10 09:22:00,
2013-04-09 23:32:00,54.0,28.0,-100.00,ENE,78,8.0,8.0,37,0.00,,,0.00,0.000000,,2013-04-10 09:32:00,
2013-04-09 23:33:00,49.0,46.0,-100.00,NE,51,1.0,15.0,90,0.00,,,0.00,0.000000,,2013-04-10 09:33:00,
2013-04-09 23:53:00,49.0,46.0,-100.00,NE,51,1.0,15.0,90,0.00,,,0.00,0.000000,,2013-04-10 09:53:00,